Time;durP1;ratioP1;P1;durP2;ratioP2;P2;SDS_P1;SDS_P2;PMS_P1;PMS_P2;Temp;Humidity;BMP_temperature;BMP_pressure;BME280_temperature;BME280_humidity;BME280_pressure;Samples;Min_cycle;Max_cycle;Signal;HPM_P1;HPM_P2
2021/12/15 00:01:35;;;;;;;0.00;0.00;;;6.20;70.60;;;;;;5010259;28;20030;-78
2021/12/15 00:04:02;;;;;;;0.00;0.00;;;6.20;70.60;;;;;;5000089;28;20033;-79
2021/12/15 00:06:27;;;;;;;0.00;0.00;;;6.20;70.70;;;;;;5017703;28;20071;-78
2021/12/15 00:08:56;;;;;;;0.00;0.00;;;6.20;70.60;;;;;;5000135;28;20029;-79
2021/12/15 00:11:26;;;;;;;0.00;0.00;;;6.20;70.60;;;;;;5017439;28;20044;-80
2021/12/15 00:13:54;;;;;;;0.00;0.00;;;6.20;70.70;;;;;;4999862;28;20030;-78
2021/12/15 00:16:20;;;;;;;0.00;0.00;;;6.20;70.80;;;;;;4999789;28;20030;-79
2021/12/15 00:18:46;;;;;;;0.00;0.00;;;6.20;70.80;;;;;;5017439;28;20049;-77
2021/12/15 00:21:15;;;;;;;0.00;0.00;;;6.20;70.70;;;;;;5016777;28;20030;-78
2021/12/15 00:23:42;;;;;;;0.00;0.00;;;6.10;70.80;;;;;;4999496;28;20037;-79
2021/12/15 00:26:09;;;;;;;0.00;0.00;;;6.10;70.90;;;;;;5017849;28;20053;-79
2021/12/15 00:28:35;;;;;;;0.00;0.00;;;6.10;70.90;;;;;;5017254;28;20053;-80
2021/12/15 00:31:00;;;;;;;0.00;0.00;;;6.10;71.10;;;;;;4998094;28;20042;-78
2021/12/15 00:33:26;;;;;;;0.00;0.00;;;6.10;71.10;;;;;;4998077;28;20113;-78
2021/12/15 00:35:55;;;;;;;0.00;0.00;;;6.10;71.20;;;;;;4997800;28;20041;-78
2021/12/15 00:38:22;;;;;;;0.00;0.00;;;6.00;71.30;;;;;;5004342;28;20022;-78
2021/12/15 00:40:47;;;;;;;0.00;0.00;;;6.00;71.40;;;;;;5017464;28;20053;-78
2021/12/15 00:43:13;;;;;;;0.00;0.00;;;6.00;71.50;;;;;;5018017;28;20131;-79
2021/12/15 00:45:39;;;;;;;0.00;0.00;;;6.10;71.50;;;;;;5000820;28;20061;-78
2021/12/15 00:48:05;;;;;;;0.00;0.00;;;6.00;71.70;;;;;;5017223;28;20069;-78
2021/12/15 00:50:35;;;;;;;0.00;0.00;;;6.10;72.20;;;;;;5011326;28;20462;-78
2021/12/15 00:53:03;;;;;;;0.00;0.00;;;6.00;71.50;;;;;;4997173;28;20022;-79
2021/12/15 00:55:29;;;;;;;0.00;0.00;;;6.00;71.60;;;;;;5001237;28;20358;-78
2021/12/15 00:57:56;;;;;;;0.00;0.00;;;5.90;71.60;;;;;;5016508;28;20033;-78
2021/12/15 01:00:25;;;;;;;0.00;0.00;;;5.90;71.80;;;;;;5015260;28;20030;-78
2021/12/15 01:02:52;;;;;;;0.00;0.00;;;5.90;71.80;;;;;;5016840;28;20061;-77
2021/12/15 01:05:21;;;;;;;0.00;0.00;;;6.00;72.00;;;;;;5015669;28;20030;-78
2021/12/15 01:07:48;;;;;;;0.00;0.00;;;6.00;72.00;;;;;;5016484;28;20398;-79
2021/12/15 01:10:20;;;;;;;0.00;0.00;;;6.00;71.80;;;;;;4997597;28;20040;-78
2021/12/15 01:14:30;;;;;;;0.00;0.00;;;6.00;71.70;;;;;;4997121;28;20034;-79
2021/12/15 01:21:08;;;;;;;0.00;0.00;;;6.00;71.80;;;;;;4996948;28;20029;-79
2021/12/15 01:23:34;;;;;;;0.00;0.00;;;6.10;71.80;;;;;;4997068;28;20034;-80
2021/12/15 01:26:09;;;;;;;0.00;0.00;;;6.10;71.80;;;;;;4978684;28;20027;-78
2021/12/15 01:28:35;;;;;;;0.00;0.00;;;6.10;71.60;;;;;;4996716;28;20462;-78
2021/12/15 01:31:04;;;;;;;0.00;0.00;;;6.10;71.40;;;;;;5001141;28;20030;-79
2021/12/15 01:33:30;;;;;;;0.00;0.00;;;6.10;71.30;;;;;;5016100;28;20022;-78
2021/12/15 01:35:58;;;;;;;0.00;0.00;;;6.10;71.40;;;;;;4998049;28;20033;-77
2021/12/15 01:38:29;;;;;;;0.00;0.00;;;6.00;71.40;;;;;;5015619;28;20060;-78
2021/12/15 01:40:55;;;;;;;0.00;0.00;;;6.00;71.30;;;;;;5012277;28;20061;-78
2021/12/15 01:43:49;;;;;;;0.00;0.00;;;6.00;71.40;;;;;;4995956;28;20030;-78
2021/12/15 01:49:19;;;;;;;0.00;0.00;;;6.00;71.60;;;;;;4997746;28;20173;-78
2021/12/15 01:51:45;;;;;;;0.00;0.00;;;6.00;71.50;;;;;;5015855;28;20041;-78
2021/12/15 01:54:12;;;;;;;0.00;0.00;;;5.90;71.60;;;;;;5015987;28;20022;-77
2021/12/15 01:56:39;;;;;;;0.00;0.00;;;5.90;71.40;;;;;;5015481;28;20136;-77
2021/12/15 01:59:06;;;;;;;0.00;0.00;;;5.90;71.50;;;;;;4983996;28;20038;-77
2021/12/15 02:01:32;;;;;;;0.00;0.00;;;5.80;71.40;;;;;;4996243;28;20026;-78
2021/12/15 02:03:58;;;;;;;0.00;0.00;;;5.80;71.70;;;;;;4995214;28;20038;-78
2021/12/15 02:06:25;;;;;;;0.00;0.00;;;5.80;71.90;;;;;;4996966;28;20041;-77
2021/12/15 02:08:52;;;;;;;0.00;0.00;;;5.80;71.80;;;;;;4991018;28;20477;-78
2021/12/15 02:11:18;;;;;;;0.00;0.00;;;5.80;71.80;;;;;;5015665;28;20032;-79
2021/12/15 02:13:44;;;;;;;0.00;0.00;;;5.90;71.90;;;;;;4989249;28;20026;-78
2021/12/15 02:16:10;;;;;;;0.00;0.00;;;5.90;72.00;;;;;;4995149;28;20034;-78
2021/12/15 02:18:41;;;;;;;0.00;0.00;;;5.80;71.80;;;;;;4995481;28;20445;-78
2021/12/15 02:21:09;;;;;;;0.00;0.00;;;5.80;71.90;;;;;;4996418;28;20374;-78
2021/12/15 02:23:42;;;;;;;0.00;0.00;;;5.80;72.00;;;;;;4995946;28;20034;-77
2021/12/15 02:26:16;;;;;;;0.00;0.00;;;5.80;71.90;;;;;;4978286;28;20034;-77
2021/12/15 02:28:47;;;;;;;0.00;0.00;;;5.80;72.00;;;;;;4974571;28;20058;-78
2021/12/15 02:31:34;;;;;;;0.00;0.00;;;5.80;72.10;;;;;;4976492;28;20031;-77
2021/12/15 02:39:31;;;;;;;0.00;0.00;;;5.80;72.10;;;;;;4975646;28;20030;-79
2021/12/15 02:41:58;;;;;;;0.00;0.00;;;5.80;72.50;;;;;;4976087;28;20046;-79
2021/12/15 02:44:24;;;;;;;0.00;0.00;;;5.80;72.50;;;;;;4976512;28;20034;-78
2021/12/15 02:46:53;;;;;;;0.00;0.00;;;5.80;72.40;;;;;;4975873;28;20046;-78
2021/12/15 02:49:23;;;;;;;0.00;0.00;;;5.80;72.50;;;;;;4974760;28;20121;-77
2021/12/15 02:51:51;;;;;;;0.00;0.00;;;5.80;72.50;;;;;;4975558;28;20031;-78
2021/12/15 02:54:19;;;;;;;0.00;0.00;;;5.80;72.50;;;;;;4975392;28;20134;-77
2021/12/15 02:56:47;;;;;;;0.00;0.00;;;5.80;72.50;;;;;;4975842;28;20422;-78
2021/12/15 02:59:15;;;;;;;0.00;0.00;;;5.80;72.50;;;;;;4976423;28;20027;-78
2021/12/15 03:15:34;;;;;;;0.00;0.00;;;5.80;72.80;;;;;;4979723;28;20110;-78
2021/12/15 03:18:08;;;;;;;0.00;0.00;;;5.80;73.10;;;;;;5007945;28;20042;-78
2021/12/15 03:21:03;;;;;;;0.00;0.00;;;5.80;73.00;;;;;;5018182;28;20381;-78
2021/12/15 03:23:41;;;;;;;0.00;0.00;;;5.80;73.00;;;;;;5018880;28;20022;-78
2021/12/15 03:26:09;;;;;;;0.00;0.00;;;5.80;73.10;;;;;;5018580;28;20030;-78
2021/12/15 03:39:46;;;;;;;0.00;0.00;;;5.80;73.50;;;;;;5018392;28;20030;-78
2021/12/15 03:42:17;;;;;;;0.00;0.00;;;5.80;73.80;;;;;;5018521;28;20026;-78
2021/12/15 03:44:45;;;;;;;0.00;0.00;;;5.90;73.90;;;;;;5017106;28;20081;-79
2021/12/15 03:47:20;;;;;;;0.00;0.00;;;5.90;73.70;;;;;;5005633;28;20038;-79
2021/12/15 03:49:46;;;;;;;0.00;0.00;;;5.90;73.30;;;;;;4998137;28;20058;-77
2021/12/15 03:52:13;;;;;;;0.00;0.00;;;5.90;73.30;;;;;;4998355;28;20418;-78
2021/12/15 03:54:40;;;;;;;0.00;0.00;;;5.90;73.40;;;;;;4996913;28;20061;-78
2021/12/15 03:57:06;;;;;;;0.00;0.00;;;5.90;73.60;;;;;;5013194;28;20450;-75
2021/12/15 03:59:34;;;;;;;0.00;0.00;;;5.90;73.50;;;;;;4998711;28;20110;-79
2021/12/15 04:02:01;;;;;;;0.00;0.00;;;5.90;73.50;;;;;;4998252;28;20033;-78
2021/12/15 04:04:26;;;;;;;0.00;0.00;;;5.90;73.60;;;;;;4997775;28;20438;-78
2021/12/15 04:06:52;;;;;;;0.00;0.00;;;6.00;73.70;;;;;;4997454;28;20066;-78
2021/12/15 04:09:18;;;;;;;0.00;0.00;;;5.90;73.70;;;;;;4997823;28;20030;-78
2021/12/15 04:11:45;;;;;;;0.00;0.00;;;6.00;73.50;;;;;;4997881;28;20030;-79
2021/12/15 04:14:19;;;;;;;0.00;0.00;;;6.00;73.10;;;;;;4997353;28;20033;-78
2021/12/15 04:16:58;;;;;;;0.00;0.00;;;6.00;72.90;;;;;;4998204;28;20390;-80
2021/12/15 04:19:24;;;;;;;0.00;0.00;;;6.00;72.90;;;;;;4999316;28;20077;-82
2021/12/15 04:21:50;;;;;;;0.00;0.00;;;5.90;72.80;;;;;;5001620;28;20358;-82
2021/12/15 04:24:18;;;;;;;0.00;0.00;;;5.90;72.80;;;;;;4997878;28;20045;-79
2021/12/15 04:26:47;;;;;;;0.00;0.00;;;5.90;72.80;;;;;;4997660;28;20521;-81
2021/12/15 04:29:14;;;;;;;0.00;0.00;;;5.80;72.90;;;;;;5020480;28;20049;-80
2021/12/15 04:31:44;;;;;;;0.00;0.00;;;5.80;72.80;;;;;;5002351;28;20459;-78
2021/12/15 04:34:11;;;;;;;0.00;0.00;;;5.70;73.10;;;;;;5016831;28;20037;-82
2021/12/15 04:36:44;;;;;;;0.00;0.00;;;5.70;73.30;;;;;;5017795;28;20033;-80
2021/12/15 04:39:14;;;;;;;0.00;0.00;;;5.70;73.40;;;;;;4999608;28;20105;-77
2021/12/15 04:41:44;;;;;;;0.00;0.00;;;5.70;73.10;;;;;;4998949;28;20030;-78
2021/12/15 04:44:11;;;;;;;0.00;0.00;;;5.70;73.20;;;;;;4998752;28;20045;-78
2021/12/15 04:46:44;;;;;;;0.00;0.00;;;5.60;73.40;;;;;;4998748;28;20030;-79
2021/12/15 04:49:12;;;;;;;0.00;0.00;;;5.60;73.60;;;;;;5016026;28;20033;-78
2021/12/15 04:51:38;;;;;;;0.00;0.00;;;5.60;73.50;;;;;;4998360;28;20094;-79
2021/12/15 04:54:05;;;;;;;0.00;0.00;;;5.60;73.80;;;;;;5015621;28;20110;-77
2021/12/15 04:56:31;;;;;;;0.00;0.00;;;5.60;73.90;;;;;;5015942;28;20058;-80
2021/12/15 04:58:57;;;;;;;0.00;0.00;;;5.60;74.10;;;;;;5015896;28;20068;-80
2021/12/15 05:01:24;;;;;;;0.00;0.00;;;5.60;73.90;;;;;;5015909;28;20033;-79
2021/12/15 05:03:50;;;;;;;0.00;0.00;;;5.60;73.80;;;;;;5015977;28;20373;-83
2021/12/15 05:06:16;;;;;;;0.00;0.00;;;5.60;73.90;;;;;;5015850;28;20030;-80
2021/12/15 05:08:42;;;;;;;0.00;0.00;;;5.60;74.10;;;;;;5015809;28;20026;-80
2021/12/15 05:11:10;;;;;;;0.00;0.00;;;5.60;74.20;;;;;;5014130;28;20394;-79
2021/12/15 05:13:36;;;;;;;0.00;0.00;;;5.70;74.40;;;;;;5016392;28;20025;-80
2021/12/15 05:16:04;;;;;;;0.00;0.00;;;5.70;74.30;;;;;;5014637;28;20026;-82
2021/12/15 05:18:30;;;;;;;0.00;0.00;;;5.70;74.50;;;;;;5014963;28;20030;-80
2021/12/15 05:20:58;;;;;;;0.00;0.00;;;5.80;74.30;;;;;;5015652;28;20052;-80
2021/12/15 05:23:29;;;;;;;0.00;0.00;;;5.80;74.50;;;;;;5015698;28;20520;-80
2021/12/15 05:25:57;;;;;;;0.00;0.00;;;5.80;74.40;;;;;;5015033;28;20037;-81
2021/12/15 05:28:23;;;;;;;0.00;0.00;;;5.90;74.40;;;;;;5015302;28;20129;-79
2021/12/15 05:30:49;;;;;;;0.00;0.00;;;5.90;74.30;;;;;;5016826;28;20053;-81
2021/12/15 05:33:15;;;;;;;0.00;0.00;;;5.90;74.10;;;;;;5015886;28;20030;-79
2021/12/15 05:35:41;;;;;;;0.00;0.00;;;5.90;74.00;;;;;;5015633;28;20042;-81
2021/12/15 05:38:08;;;;;;;0.00;0.00;;;5.80;74.00;;;;;;5015027;28;20030;-80
2021/12/15 05:40:35;;;;;;;0.00;0.00;;;5.80;74.00;;;;;;5015401;28;20080;-80
2021/12/15 05:43:01;;;;;;;0.00;0.00;;;5.80;74.10;;;;;;5014121;28;20033;-81
2021/12/15 05:45:30;;;;;;;0.00;0.00;;;5.80;74.20;;;;;;5014894;28;20026;-82
2021/12/15 05:47:57;;;;;;;0.00;0.00;;;5.90;74.00;;;;;;5013809;28;20069;-80
2021/12/15 05:50:25;;;;;;;0.00;0.00;;;5.80;74.10;;;;;;5014444;28;20029;-82
2021/12/15 05:52:51;;;;;;;0.00;0.00;;;5.80;74.20;;;;;;5014456;28;20022;-78
2021/12/15 05:55:18;;;;;;;0.00;0.00;;;5.90;74.20;;;;;;5015505;28;20038;-80
2021/12/15 05:57:44;;;;;;;0.00;0.00;;;5.90;74.10;;;;;;5014717;28;20392;-81
2021/12/15 06:00:15;;;;;;;0.00;0.00;;;5.90;74.00;;;;;;5014567;28;20037;-80
2021/12/15 06:02:42;;;;;;;0.00;0.00;;;5.90;73.90;;;;;;5014946;28;20021;-80
2021/12/15 06:05:09;;;;;;;0.00;0.00;;;5.80;73.90;;;;;;5014828;28;20026;-80
2021/12/15 06:07:35;;;;;;;0.00;0.00;;;5.80;73.80;;;;;;5014776;28;20037;-79
2021/12/15 06:10:02;;;;;;;0.00;0.00;;;5.80;74.00;;;;;;5014536;28;20084;-78
2021/12/15 06:12:28;;;;;;;0.00;0.00;;;5.80;74.10;;;;;;5014440;28;20042;-78
2021/12/15 06:14:54;;;;;;;0.00;0.00;;;5.90;73.90;;;;;;5014648;28;20025;-80
2021/12/15 06:17:25;;;;;;;0.00;0.00;;;5.80;73.90;;;;;;5015376;28;20113;-80
2021/12/15 06:19:52;;;;;;;0.00;0.00;;;5.80;73.70;;;;;;5015076;28;20064;-79
2021/12/15 06:22:23;;;;;;;0.00;0.00;;;5.80;73.90;;;;;;5015171;28;20038;-78
2021/12/15 06:24:49;;;;;;;0.00;0.00;;;5.80;74.20;;;;;;4997346;28;20136;-79
2021/12/15 06:27:18;;;;;;;0.00;0.00;;;5.80;74.30;;;;;;5014527;28;20563;-80
2021/12/15 06:29:45;;;;;;;0.00;0.00;;;5.90;74.60;;;;;;5014778;28;20029;-78
2021/12/15 06:32:11;;;;;;;0.00;0.00;;;5.90;74.40;;;;;;5014573;28;20076;-81
2021/12/15 06:34:37;;;;;;;0.00;0.00;;;5.90;74.20;;;;;;5014659;28;20022;-79
2021/12/15 06:37:03;;;;;;;0.00;0.00;;;6.00;74.20;;;;;;4997100;28;20034;-78
2021/12/15 06:39:30;;;;;;;0.00;0.00;;;6.00;74.20;;;;;;5014344;28;20385;-79
2021/12/15 06:41:56;;;;;;;0.08;0.08;;;6.00;73.90;;;;;;4996364;28;20057;-80
2021/12/15 06:44:22;;;;;;;0.00;0.00;;;6.00;74.00;;;;;;5013919;28;20022;-79
2021/12/15 06:59:55;;;;;;;0.00;0.00;;;6.00;73.60;;;;;;5018232;28;20022;-78
2021/12/15 07:02:22;;;;;;;0.00;0.00;;;6.00;73.50;;;;;;5018365;28;20299;-80
2021/12/15 07:04:48;;;;;;;0.00;0.00;;;6.00;73.50;;;;;;5017911;28;20084;-78
2021/12/15 07:07:14;;;;;;;0.00;0.00;;;6.00;73.70;;;;;;5018636;28;20070;-77
2021/12/15 07:09:40;;;;;;;0.00;0.00;;;6.00;73.80;;;;;;5012259;28;20034;-79
2021/12/15 07:12:06;;;;;;;0.00;0.00;;;6.00;73.80;;;;;;5000138;28;20379;-79
2021/12/15 07:14:32;;;;;;;0.00;0.00;;;6.00;73.90;;;;;;4981256;28;20501;-79
2021/12/15 07:16:59;;;;;;;0.00;0.00;;;6.00;74.00;;;;;;4998537;28;20034;-79
2021/12/15 07:22:15;;;;;;;0.00;0.00;;;6.00;74.10;;;;;;5008741;28;20092;-80
2021/12/15 07:24:41;;;;;;;0.00;0.00;;;6.00;73.90;;;;;;5017627;28;20457;-81
2021/12/15 07:27:07;;;;;;;0.00;0.00;;;6.00;73.80;;;;;;5016893;28;20030;-80
2021/12/15 07:29:34;;;;;;;0.00;0.00;;;6.00;74.00;;;;;;5017812;28;20101;-80
2021/12/15 07:32:01;;;;;;;0.00;0.00;;;6.10;74.00;;;;;;5011178;28;20109;-80
2021/12/15 07:34:27;;;;;;;0.00;0.00;;;6.00;73.90;;;;;;4987055;28;20031;-80
2021/12/15 07:36:53;;;;;;;0.00;0.00;;;6.10;73.70;;;;;;4980616;28;20085;-81
2021/12/15 07:39:20;;;;;;;0.00;0.00;;;6.20;73.50;;;;;;4997679;28;20107;-79
2021/12/15 07:41:52;;;;;;;0.00;0.00;;;6.10;73.20;;;;;;4998168;28;20034;-79
2021/12/15 07:44:20;;;;;;;0.00;0.00;;;6.20;73.00;;;;;;5004802;28;20381;-79
2021/12/15 07:46:52;;;;;;;0.00;0.00;;;6.10;73.00;;;;;;5017852;28;20037;-80
2021/12/15 07:49:20;;;;;;;0.00;0.00;;;6.10;73.00;;;;;;5017423;28;20068;-81
2021/12/15 07:51:47;;;;;;;0.00;0.00;;;6.10;73.00;;;;;;5017627;28;20025;-81
2021/12/15 07:54:14;;;;;;;0.00;0.00;;;6.10;73.00;;;;;;5016783;28;20025;-78
2021/12/15 07:56:42;;;;;;;0.00;0.00;;;6.20;73.10;;;;;;5012860;28;20560;-80
2021/12/15 07:59:08;;;;;;;0.00;0.00;;;6.20;73.00;;;;;;5007613;28;20030;-79
2021/12/15 08:01:33;;;;;;;0.00;0.00;;;6.20;72.70;;;;;;4999516;28;20036;-80
2021/12/15 08:03:59;;;;;;;0.00;0.00;;;6.20;72.90;;;;;;4999556;28;20386;-82
2021/12/15 08:06:27;;;;;;;0.00;0.00;;;6.20;73.00;;;;;;4995483;28;20121;-82
2021/12/15 08:08:54;;;;;;;0.00;0.00;;;6.30;72.70;;;;;;5015564;28;20080;-79
2021/12/15 08:11:21;;;;;;;0.00;0.00;;;6.30;72.40;;;;;;5016667;28;20053;-78
2021/12/15 08:13:46;;;;;;;0.00;0.00;;;6.30;72.30;;;;;;4999699;28;20105;-80
2021/12/15 08:16:14;;;;;;;0.00;0.00;;;6.40;72.20;;;;;;4983072;28;20034;-79
2021/12/15 08:18:40;;;;;;;0.00;0.00;;;6.40;72.20;;;;;;4996512;28;20104;-80
2021/12/15 08:21:07;;;;;;;0.00;0.00;;;6.40;72.20;;;;;;5007300;28;20028;-78
2021/12/15 08:23:33;;;;;;;0.00;0.00;;;6.40;72.30;;;;;;4986755;28;20033;-78
2021/12/15 08:26:00;;;;;;;0.00;0.00;;;6.50;71.90;;;;;;4990439;28;20131;-81
2021/12/15 08:28:26;;;;;;;0.00;0.00;;;6.40;71.80;;;;;;4986010;28;20085;-79
2021/12/15 08:30:54;;;;;;;0.00;0.00;;;6.40;72.00;;;;;;5006635;28;20094;-81
2021/12/15 08:33:22;;;;;;;0.00;0.00;;;6.40;72.00;;;;;;5006158;28;20026;-79
2021/12/15 08:35:59;;;;;;;0.00;0.00;;;6.40;72.30;;;;;;5002083;28;20037;-82
2021/12/15 08:38:27;;;;;;;0.00;0.00;;;6.40;72.30;;;;;;5004099;28;20027;-79
2021/12/15 08:40:53;;;;;;;0.00;0.00;;;6.40;72.30;;;;;;5007914;28;20409;-80
2021/12/15 08:43:21;;;;;;;0.00;0.00;;;6.40;72.20;;;;;;5004919;28;20029;-81
2021/12/15 08:46:11;;;;;;;0.00;0.00;;;6.40;72.20;;;;;;4986724;28;20034;-80
2021/12/15 08:48:39;;;;;;;0.00;0.00;;;6.40;72.30;;;;;;5007286;28;20092;-83
2021/12/15 08:51:07;;;;;;;0.00;0.00;;;6.40;72.30;;;;;;5005839;28;20462;-80
2021/12/15 08:53:33;;;;;;;0.00;0.00;;;6.40;72.60;;;;;;5004681;28;20439;-81
2021/12/15 08:55:59;;;;;;;0.00;0.00;;;6.40;72.30;;;;;;4986928;28;20030;-80
2021/12/15 08:58:26;;;;;;;0.00;0.00;;;6.40;72.30;;;;;;4988290;28;20026;-80
2021/12/15 09:00:56;;;;;;;0.00;0.00;;;6.30;72.10;;;;;;5005778;28;20101;-79
2021/12/15 09:03:22;;;;;;;0.00;0.00;;;6.30;72.40;;;;;;4988836;28;20356;-80
2021/12/15 09:05:52;;;;;;;0.00;0.00;;;6.30;72.40;;;;;;5006800;28;20032;-81
2021/12/15 09:08:20;;;;;;;0.00;0.00;;;6.30;72.20;;;;;;4987024;28;20044;-81
2021/12/15 09:10:46;;;;;;;0.00;0.00;;;6.30;72.40;;;;;;4987784;28;20552;-80
2021/12/15 09:13:13;;;;;;;0.00;0.00;;;6.30;72.60;;;;;;5005538;28;20026;-80
2021/12/15 09:15:41;;;;;;;0.00;0.00;;;6.30;72.50;;;;;;5004872;28;20557;-82
2021/12/15 09:18:09;;;;;;;0.00;0.00;;;6.40;72.30;;;;;;5003900;28;20046;-80
2021/12/15 09:20:37;;;;;;;0.00;0.00;;;6.40;72.40;;;;;;5004528;28;20091;-80
2021/12/15 09:23:06;;;;;;;0.00;0.00;;;6.40;72.50;;;;;;4985243;28;20438;-80
2021/12/15 09:25:32;;;;;;;0.00;0.00;;;6.50;72.60;;;;;;5004870;28;20018;-82
2021/12/15 09:27:58;;;;;;;0.00;0.00;;;6.60;72.40;;;;;;5004592;28;20404;-81
2021/12/15 09:30:26;;;;;;;0.00;0.00;;;6.60;71.80;;;;;;5003537;28;20025;-79
2021/12/15 09:32:51;;;;;;;0.00;0.00;;;6.60;71.50;;;;;;5004885;28;20028;-82
2021/12/15 09:35:18;;;;;;;0.00;0.00;;;6.60;71.40;;;;;;5004632;28;20026;-81
2021/12/15 09:37:44;;;;;;;0.00;0.00;;;6.60;71.10;;;;;;4987944;28;20410;-80
2021/12/15 09:40:12;;;;;;;0.00;0.00;;;6.60;70.90;;;;;;4993308;28;20041;-79
2021/12/15 09:42:39;;;;;;;0.00;0.00;;;6.60;71.10;;;;;;4993334;28;20053;-79
2021/12/15 09:45:23;;;;;;;0.00;0.00;;;6.60;71.20;;;;;;4994216;28;20090;-80
2021/12/15 10:04:31;;;;;;;0.00;0.00;;;6.50;70.90;;;;;;4975864;28;20154;-79
2021/12/15 10:17:26;;;;;;;0.00;0.00;;;6.40;71.50;;;;;;4975474;28;20033;-80
2021/12/15 10:18:17;;;;;;;0.00;0.00;;;6.50;71.60;;;;;;4975469;28;20066;-79
2021/12/15 10:20:43;;;;;;;0.00;0.00;;;6.50;71.30;;;;;;4975918;28;20031;-79
2021/12/15 10:23:15;;;;;;;0.00;0.00;;;6.60;71.20;;;;;;4974196;28;20031;-81
2021/12/15 10:25:48;;;;;;;0.00;0.00;;;6.60;71.00;;;;;;4975160;28;20138;-81
2021/12/15 10:28:26;;;;;;;0.00;0.00;;;6.70;71.00;;;;;;4974349;28;20549;-80
2021/12/15 10:31:00;;;;;;;0.00;0.00;;;6.70;71.00;;;;;;4975048;28;20446;-79
2021/12/15 10:33:37;;;;;;;0.00;0.00;;;6.70;71.00;;;;;;4983396;28;20080;-80
2021/12/15 10:36:23;;;;;;;0.00;0.00;;;6.70;70.70;;;;;;4994093;28;20437;-80
2021/12/15 10:38:53;;;;;;;0.00;0.00;;;6.70;70.50;;;;;;4986315;28;20053;-81
2021/12/15 10:41:21;;;;;;;0.00;0.00;;;6.60;70.60;;;;;;4985607;28;20026;-81
2021/12/15 10:43:56;;;;;;;0.00;0.00;;;6.70;70.90;;;;;;4984814;28;20022;-81
2021/12/15 10:46:30;;;;;;;0.00;0.00;;;6.70;70.80;;;;;;4988101;28;20030;-76
2021/12/15 10:48:59;;;;;;;0.00;0.00;;;6.60;70.40;;;;;;4985208;28;20030;-80
2021/12/15 10:51:44;;;;;;;0.00;0.00;;;6.50;70.40;;;;;;4982001;28;20029;-80
2021/12/15 10:54:21;;;;;;;0.00;0.00;;;6.50;70.70;;;;;;4984780;28;20054;-80
2021/12/15 10:56:57;;;;;;;0.00;0.00;;;6.40;70.90;;;;;;4984560;28;20439;-80
2021/12/15 10:59:29;;;;;;;0.00;0.00;;;6.50;71.00;;;;;;4991314;28;20170;-80
2021/12/15 11:01:58;;;;;;;0.00;0.00;;;6.40;71.10;;;;;;4994829;28;20054;-80
2021/12/15 11:04:41;;;;;;;0.00;0.00;;;6.40;71.10;;;;;;4990629;28;20058;-81
2021/12/15 11:07:21;;;;;;;0.00;0.00;;;6.40;71.10;;;;;;4983175;28;20054;-81
2021/12/15 11:09:54;;;;;;;0.00;0.00;;;6.40;71.20;;;;;;4982837;28;20039;-80
2021/12/15 11:12:25;;;;;;;0.00;0.00;;;6.40;71.10;;;;;;4984652;28;20147;-79
2021/12/15 11:14:54;;;;;;;0.00;0.00;;;6.40;71.30;;;;;;4987231;28;20378;-80
2021/12/15 11:17:24;;;;;;;0.00;0.00;;;6.30;71.20;;;;;;4978990;28;20538;-83
2021/12/15 11:19:53;;;;;;;0.00;0.00;;;6.40;71.50;;;;;;4978489;28;20026;-80
2021/12/15 11:22:49;;;;;;;0.03;0.03;;;6.30;71.20;;;;;;4983627;28;20111;-82
2021/12/15 11:25:27;;;;;;;0.00;0.00;;;6.40;71.20;;;;;;4983019;28;20472;-80
2021/12/15 11:28:08;;;;;;;0.00;0.00;;;6.40;71.30;;;;;;4990046;28;20130;-81
2021/12/15 11:30:48;;;;;;;0.00;0.00;;;6.40;71.40;;;;;;4976716;28;20027;-79
2021/12/15 11:33:16;;;;;;;0.00;0.00;;;6.40;71.20;;;;;;4982491;28;20034;-81
2021/12/15 11:35:55;;;;;;;0.00;0.00;;;6.40;71.30;;;;;;4994380;28;20030;-80
2021/12/15 11:38:29;;;;;;;0.00;0.00;;;6.30;71.20;;;;;;4997854;28;20066;-79
2021/12/15 11:40:57;;;;;;;0.00;0.00;;;6.40;71.30;;;;;;4997837;28;20339;-79
2021/12/15 11:43:28;;;;;;;0.00;0.00;;;6.40;71.40;;;;;;4997341;28;20134;-81
2021/12/15 11:45:54;;;;;;;0.00;0.00;;;6.40;71.10;;;;;;4997661;28;20038;-79
2021/12/15 11:48:24;;;;;;;0.00;0.00;;;6.40;70.90;;;;;;4996924;28;20034;-79
2021/12/15 11:50:52;;;;;;;0.00;0.00;;;6.40;71.30;;;;;;4995386;28;20049;-79
2021/12/15 11:53:46;;;;;;;0.00;0.00;;;6.40;71.90;;;;;;4986586;28;20057;-77
2021/12/15 11:56:31;;;;;;;0.00;0.00;;;6.30;71.00;;;;;;4992374;28;20027;-80
2021/12/15 11:59:15;;;;;;;;;;;6.30;71.20;;;;;;4996328;28;20038;-78
2021/12/15 12:01:52;;;;;;;0.00;0.00;;;6.20;71.20;;;;;;4997034;28;19912;-79
2021/12/15 12:04:25;;;;;;;0.00;0.00;;;6.20;71.00;;;;;;4997570;28;20108;-86
2021/12/15 12:06:56;;;;;;;0.00;0.00;;;6.10;71.20;;;;;;4996824;28;20033;-79
2021/12/15 12:09:23;;;;;;;0.00;0.00;;;6.00;71.40;;;;;;4997101;28;20134;-78
2021/12/15 12:11:55;;;;;;;0.00;0.00;;;6.00;71.60;;;;;;4997484;28;20038;-79
2021/12/15 12:14:43;;;;;;;0.00;0.00;;;6.00;71.80;;;;;;4996083;28;20117;-78
2021/12/15 12:17:14;;;;;;;0.00;0.00;;;6.00;72.00;;;;;;4996695;28;20467;-81
2021/12/15 12:19:56;;;;;;;0.00;0.00;;;6.00;71.90;;;;;;4995011;28;20034;-79
2021/12/15 12:22:24;;;;;;;0.00;0.00;;;6.00;72.00;;;;;;4997473;28;20049;-77
2021/12/15 12:24:54;;;;;;;0.00;0.00;;;6.00;72.00;;;;;;4997061;28;20026;-86
2021/12/15 12:27:23;;;;;;;0.00;0.00;;;6.10;72.10;;;;;;4996774;28;20149;-77
2021/12/15 12:29:52;;;;;;;0.00;0.00;;;6.10;72.50;;;;;;4995391;28;20117;-78
2021/12/15 12:32:18;;;;;;;0.00;0.00;;;6.00;71.70;;;;;;4997341;28;20041;-78
2021/12/15 12:34:44;;;;;;;0.00;0.00;;;6.00;71.80;;;;;;4992521;28;20492;-78
2021/12/15 12:37:12;;;;;;;0.10;0.10;;;6.00;71.80;;;;;;4989941;28;20058;-79
2021/12/15 12:39:39;;;;;;;0.00;0.00;;;6.00;71.90;;;;;;4996610;28;20030;-77
2021/12/15 12:42:05;;;;;;;0.00;0.00;;;6.00;72.00;;;;;;4996253;28;20030;-77
2021/12/15 12:44:38;;;;;;;0.03;0.03;;;6.10;71.90;;;;;;4995508;28;20022;-82
2021/12/15 12:47:28;;;;;;;0.03;0.03;;;6.10;71.90;;;;;;4995311;28;20022;-77
2021/12/15 12:50:21;;;;;;;0.00;0.00;;;6.10;71.90;;;;;;4996505;28;20042;-80
2021/12/15 13:01:08;;;;;;;0.00;0.00;;;6.10;71.40;;;;;;4996959;28;20026;-84
2021/12/15 13:04:08;;;;;;;0.00;0.00;;;6.10;71.40;;;;;;4992191;28;20405;-82
2021/12/15 13:06:41;;;;;;;0.00;0.00;;;6.10;71.40;;;;;;4996415;28;20030;-84
2021/12/15 13:09:25;;;;;;;0.00;0.00;;;6.10;71.50;;;;;;4991114;28;20030;-88
2021/12/15 13:11:54;;;;;;;0.00;0.00;;;6.10;71.60;;;;;;4987498;28;20027;-82
2021/12/15 13:14:37;;;;;;;0.00;0.00;;;6.10;71.50;;;;;;4984451;28;20046;-88
2021/12/15 13:17:23;;;;;;;0.00;0.00;;;6.10;71.50;;;;;;4986575;28;20049;-85
2021/12/15 13:19:51;;;;;;;0.00;0.00;;;6.10;71.60;;;;;;4987256;28;20027;-82
2021/12/15 13:22:45;;;;;;;0.10;0.00;;;6.10;71.50;;;;;;4986221;28;20019;-85
2021/12/15 13:31:09;;;;;;;0.00;0.00;;;6.00;71.50;;;;;;4985111;28;20126;-83
2021/12/15 13:36:57;;;;;;;0.03;0.03;;;5.90;71.60;;;;;;4987417;28;20098;-83
2021/12/15 13:39:22;;;;;;;0.00;0.00;;;6.00;71.60;;;;;;5002383;28;20122;-84
2021/12/15 13:42:03;;;;;;;0.00;0.00;;;5.90;71.40;;;;;;4983112;28;20458;-83
2021/12/15 13:44:35;;;;;;;0.05;0.00;;;5.90;71.40;;;;;;4975848;28;20114;-84
2021/12/15 13:47:15;;;;;;;0.00;0.00;;;5.90;71.40;;;;;;4981168;28;20031;-83
2021/12/15 13:50:08;;;;;;;0.00;0.00;;;5.90;71.50;;;;;;5009165;28;20034;-83
2021/12/15 13:52:36;;;;;;;0.00;0.00;;;5.90;71.40;;;;;;4992009;28;20125;-84
2021/12/15 13:55:05;;;;;;;0.00;0.00;;;6.00;71.50;;;;;;4995034;28;20034;-82
2021/12/15 13:57:38;;;;;;;0.00;0.00;;;6.00;71.50;;;;;;4979366;28;20057;-84
2021/12/15 14:00:20;;;;;;;0.00;0.00;;;6.00;71.10;;;;;;4976137;28;20105;-83
2021/12/15 14:03:11;;;;;;;0.00;0.00;;;6.10;71.00;;;;;;4975598;28;20479;-81
2021/12/15 14:05:58;;;;;;;0.00;0.00;;;6.00;71.00;;;;;;4990325;28;20489;-84
2021/12/15 14:08:28;;;;;;;0.00;0.00;;;6.00;70.80;;;;;;4987949;28;20045;-83
2021/12/15 14:11:08;;;;;;;0.00;0.00;;;6.00;70.80;;;;;;4995143;28;20037;-83
2021/12/15 14:14:00;;;;;;;0.03;0.00;;;5.90;70.80;;;;;;4995103;28;20066;-84
2021/12/15 14:16:35;;;;;;;0.00;0.00;;;5.90;71.10;;;;;;4982102;28;20034;-84
2021/12/15 14:19:05;;;;;;;0.10;0.10;;;5.80;70.70;;;;;;4975789;28;20522;-83
2021/12/15 14:21:32;;;;;;;0.00;0.00;;;5.80;70.70;;;;;;4975821;28;20031;-83
2021/12/15 14:23:59;;;;;;;0.10;0.00;;;5.80;70.70;;;;;;4975780;28;20034;-83
2021/12/15 14:26:32;;;;;;;0.00;0.00;;;5.70;70.90;;;;;;4979441;28;20378;-83
2021/12/15 14:29:01;;;;;;;0.00;0.00;;;5.70;71.00;;;;;;4995048;28;20085;-83
2021/12/15 14:31:34;;;;;;;0.00;0.00;;;5.70;71.00;;;;;;4993702;28;20026;-83
2021/12/15 14:34:05;;;;;;;0.05;0.05;;;5.70;70.80;;;;;;4995243;28;20030;-83
2021/12/15 14:36:35;;;;;;;0.00;0.00;;;5.70;70.80;;;;;;4995096;28;20053;-82
2021/12/15 14:39:06;;;;;;;0.00;0.00;;;5.60;70.70;;;;;;4995060;28;20045;-83
2021/12/15 14:41:44;;;;;;;0.00;0.00;;;5.60;70.80;;;;;;4994677;28;20026;-83
2021/12/15 14:44:16;;;;;;;0.00;0.00;;;5.60;70.90;;;;;;4993852;28;20088;-84
2021/12/15 14:46:46;;;;;;;0.00;0.00;;;5.60;70.90;;;;;;4994226;28;20034;-83
2021/12/15 14:49:15;;;;;;;0.00;0.00;;;5.50;70.80;;;;;;4995150;28;20026;-83
2021/12/15 14:51:47;;;;;;;0.00;0.00;;;5.50;71.00;;;;;;4993530;28;20158;-84